Time;durP1;ratioP1;P1;durP2;ratioP2;P2;SDS_P1;SDS_P2;PMS_P1;PMS_P2;Temp;Humidity;BMP_temperature;BMP_pressure;BME280_temperature;BME280_humidity;BME280_pressure;Samples;Min_cycle;Max_cycle;Signal;HPM_P1;HPM_P2
2022/02/04 00:23:54;;;;;;;9.10;5.57;;;6.80;99.90;;;6.88;71.43;97487.19;5108526;28;20051;-36
2022/02/04 00:26:27;;;;;;;9.43;5.97;;;6.90;99.90;;;6.92;71.42;97491.25;5109871;28;20055;-36
2022/02/04 00:29:07;;;;;;;9.00;5.97;;;6.90;99.90;;;6.86;71.10;97487.34;5090470;28;20054;-37
2022/02/04 00:34:07;;;;;;;9.47;5.63;;;7.00;99.90;;;6.74;71.38;97488.44;5089705;28;20047;-36
2022/02/04 00:39:08;;;;;;;8.10;6.13;;;6.60;99.90;;;6.63;71.75;97489.44;5089218;28;20052;-36
2022/02/04 00:41:38;;;;;;;6.63;5.57;;;6.70;99.90;;;6.74;71.46;97487.63;5088933;28;20047;-36
2022/02/04 00:44:15;;;;;;;8.20;5.43;;;6.70;99.90;;;6.82;71.44;97491.22;5087510;28;20274;-36
2022/02/04 00:49:34;;;;;;;9.50;5.33;;;6.90;99.90;;;6.92;71.13;97495.69;5090265;28;20334;-36
2022/02/04 00:52:18;;;;;;;;;;;6.90;99.90;;;6.86;70.99;97491.78;5089002;28;20044;-36
2022/02/04 00:54:56;;;;;;;7.00;5.05;;;6.90;99.90;;;6.86;71.07;97503.22;5089358;28;19924;-37
2022/02/04 01:27:44;;;;;;;7.10;4.73;;;6.90;99.90;;;6.98;70.57;97517.13;5088965;28;20056;-36
2022/02/04 01:30:20;;;;;;;;;;;6.90;99.90;;;6.94;70.69;97521.03;5088385;28;20074;-36
2022/02/04 01:32:48;;;;;;;6.70;4.33;;;6.90;99.90;;;6.92;70.58;97514.19;5087826;28;19928;-36
2022/02/04 01:35:17;;;;;;;7.00;4.47;;;6.80;99.90;;;6.81;70.81;97507.25;5088019;28;20048;-36
2022/02/04 01:37:45;;;;;;;6.33;3.80;;;6.70;99.90;;;6.77;71.04;97512.00;5088114;28;20052;-36
2022/02/04 01:40:13;;;;;;;4.80;3.30;;;6.70;99.90;;;6.67;71.16;97506.72;5087198;28;20224;-36
2022/02/04 01:42:41;;;;;;;10.37;4.43;;;6.60;99.90;;;6.64;71.27;97514.91;5088940;28;20269;-37
2022/02/04 01:45:09;;;;;;;5.87;3.23;;;6.60;99.90;;;6.72;71.22;97513.41;5088193;28;20063;-37
2022/02/04 01:47:41;;;;;;;4.87;3.17;;;6.60;99.90;;;6.67;71.53;97513.81;5085981;28;20061;-36
2022/02/04 01:50:09;;;;;;;5.80;4.03;;;6.60;99.90;;;6.56;71.93;97508.66;5087491;28;20081;-37
2022/02/04 01:52:37;;;;;;;6.17;4.30;;;6.50;99.90;;;6.55;71.89;97512.28;5088552;28;20054;-36
2022/02/04 01:55:05;;;;;;;7.67;3.67;;;6.50;99.90;;;6.58;72.08;97512.84;5087278;28;20046;-35
2022/02/04 01:57:33;;;;;;;4.97;3.87;;;6.60;99.90;;;6.63;71.34;97507.97;5089014;28;20044;-36
2022/02/04 02:00:00;;;;;;;4.93;3.23;;;6.60;99.90;;;6.64;71.71;97509.63;5087408;28;20052;-36
2022/02/04 02:02:29;;;;;;;5.63;3.77;;;6.60;99.90;;;6.72;71.37;97510.75;5081901;28;20044;-37
2022/02/04 02:05:06;;;;;;;4.37;3.07;;;6.70;99.90;;;6.76;71.50;97506.84;5068548;28;20060;-37
2022/02/04 02:07:45;;;;;;;6.40;4.40;;;6.80;99.90;;;6.69;71.66;97499.47;5082673;28;20052;-37
2022/02/04 02:10:17;;;;;;;5.40;2.90;;;6.60;99.90;;;6.62;72.45;97497.53;5085725;28;20064;-37
2022/02/04 02:15:29;;;;;;;5.40;4.00;;;6.60;99.90;;;6.61;72.10;97501.13;5066421;28;20052;-37
2022/02/04 02:58:37;;;;;;;5.03;4.10;;;6.80;99.90;;;6.95;72.53;97511.28;5045972;28;20062;-36
2022/02/04 03:01:07;;;;;;;8.47;4.83;;;6.80;99.90;;;6.90;72.81;97504.59;5066210;28;20041;-36
2022/02/04 03:03:39;;;;;;;7.00;4.50;;;6.80;99.90;;;6.83;72.89;97506.13;5081647;28;20050;-36
2022/02/04 03:06:08;;;;;;;9.13;4.57;;;6.70;99.90;;;6.66;73.26;97502.38;5086475;28;20048;-36
2022/02/04 03:08:36;;;;;;;6.07;4.00;;;6.50;99.90;;;6.67;72.81;97509.34;5086861;28;20361;-36
2022/02/04 03:11:03;;;;;;;7.33;4.77;;;6.50;99.90;;;6.63;73.44;97504.47;5086234;28;20234;-36
2022/02/04 03:13:33;;;;;;;7.83;4.97;;;6.50;99.90;;;6.56;73.26;97511.31;5085408;28;20052;-36
2022/02/04 03:16:06;;;;;;;5.53;4.30;;;6.40;99.90;;;6.47;74.03;97508.50;5086697;28;20058;-36
2022/02/04 03:18:37;;;;;;;8.23;5.33;;;6.30;99.90;;;6.47;73.86;97508.50;5086952;28;20062;-36
2022/02/04 03:21:12;;;;;;;7.27;4.57;;;6.30;99.90;;;6.53;73.85;97507.13;5086311;28;20047;-36
2022/02/04 03:23:44;;;;;;;8.83;5.43;;;6.40;99.90;;;6.52;74.03;97507.28;5086393;28;20056;-36
2022/02/04 03:26:23;;;;;;;6.90;4.50;;;6.40;99.90;;;6.48;73.72;97506.72;5086664;28;20055;-36
2022/02/04 03:28:51;;;;;;;8.97;4.90;;;6.40;99.90;;;6.41;74.48;97505.59;5086407;28;20048;-41
2022/02/04 03:31:20;;;;;;;5.67;3.80;;;6.30;99.90;;;6.39;73.96;97500.44;5084818;28;20400;-37
2022/02/04 03:33:48;;;;;;;7.10;4.77;;;6.30;99.90;;;6.38;74.13;97503.22;5084860;28;20048;-37
2022/02/04 03:36:16;;;;;;;10.43;3.83;;;6.30;99.90;;;6.26;74.60;97513.09;5086134;28;20380;-36
2022/02/04 03:38:44;;;;;;;6.40;4.17;;;6.10;99.90;;;6.20;74.97;97506.53;5087097;28;20054;-37
2022/02/04 03:41:13;;;;;;;7.07;4.70;;;6.10;99.90;;;6.22;74.78;97506.41;5085437;28;20044;-37
2022/02/04 03:43:41;;;;;;;7.37;4.17;;;6.20;99.90;;;6.22;74.56;97509.91;5086609;28;20051;-36
2022/02/04 03:46:09;;;;;;;8.23;4.27;;;6.20;99.90;;;6.21;74.84;97507.38;5085950;28;20216;-36
2022/02/04 03:48:37;;;;;;;6.53;4.73;;;6.20;99.90;;;6.26;74.97;97511.28;5088616;28;20051;-36
2022/02/04 03:51:04;;;;;;;6.87;3.47;;;6.30;99.90;;;6.18;74.93;97515.59;5089906;28;20059;-36
2022/02/04 03:53:32;;;;;;;5.63;4.10;;;6.20;99.90;;;6.20;74.67;97516.28;5088527;28;20052;-36
2022/02/04 03:56:00;;;;;;;6.80;3.90;;;6.20;99.90;;;6.23;75.17;97511.56;5090912;28;20056;-36
2022/02/04 03:58:31;;;;;;;4.60;3.33;;;6.20;99.90;;;6.27;74.55;97522.69;5089955;28;20051;-36
2022/02/04 04:00:59;;;;;;;5.97;3.73;;;6.30;99.90;;;6.33;74.21;97516.03;5072256;28;20054;-37
2022/02/04 04:03:27;;;;;;;5.07;3.27;;;6.30;99.90;;;6.42;74.67;97525.78;5088745;28;20063;-37
2022/02/04 04:05:55;;;;;;;5.10;3.53;;;6.40;99.90;;;6.45;74.67;97522.84;5089236;28;20235;-37
2022/02/04 04:08:24;;;;;;;6.10;4.03;;;6.40;99.90;;;6.50;74.56;97523.28;5091238;28;20048;-37
2022/02/04 04:10:53;;;;;;;5.40;3.60;;;6.50;99.90;;;6.48;74.20;97527.88;5088904;28;20056;-37
2022/02/04 04:13:21;;;;;;;6.03;3.83;;;6.50;99.90;;;6.55;74.17;97531.63;5090981;28;20342;-37
2022/02/04 04:15:49;;;;;;;5.10;3.27;;;6.50;99.90;;;6.55;74.37;97530.78;5089799;28;20058;-37
2022/02/04 04:18:17;;;;;;;5.23;3.30;;;6.50;99.90;;;6.64;73.85;97530.78;5090434;28;20042;-37
2022/02/04 04:20:46;;;;;;;5.10;3.37;;;6.60;99.90;;;6.66;73.84;97534.13;5090274;28;20051;-37
2022/02/04 04:23:15;;;;;;;4.97;4.27;;;6.60;99.90;;;6.74;73.42;97530.78;5089449;28;20062;-37
2022/02/04 04:25:42;;;;;;;4.20;3.20;;;6.70;99.90;;;6.70;73.40;97543.44;5088690;28;20056;-37
2022/02/04 04:28:10;;;;;;;5.43;3.60;;;6.70;99.90;;;6.69;73.77;97536.50;5090677;28;20054;-37
2022/02/04 04:30:38;;;;;;;4.73;3.33;;;6.60;99.90;;;6.70;73.75;97538.16;5089774;28;20496;-37
2022/02/04 04:33:06;;;;;;;4.50;3.57;;;6.60;99.90;;;6.75;73.52;97529.00;5089951;28;20239;-37
2022/02/04 04:35:35;;;;;;;6.07;3.00;;;6.60;99.90;;;6.70;73.33;97529.41;5088454;28;20422;-37
2022/02/04 05:29:42;;;;;;;3.70;2.23;;;6.30;99.90;;;6.42;73.61;97560.16;5087815;28;20224;-36
2022/02/04 05:32:10;;;;;;;4.73;2.47;;;6.30;99.90;;;6.43;74.17;97556.53;5087642;28;20059;-36
2022/02/04 05:34:39;;;;;;;3.13;2.33;;;6.30;99.90;;;6.41;74.01;97561.13;5087001;28;20051;-36
2022/02/04 05:37:08;;;;;;;3.73;2.37;;;6.30;99.90;;;6.30;74.24;97554.13;5088459;28;20235;-36
2022/02/04 05:39:46;;;;;;;3.57;2.37;;;6.20;99.90;;;6.24;73.82;97552.03;5088871;28;20050;-36
2022/02/04 05:42:20;;;;;;;3.73;2.20;;;6.10;99.90;;;6.22;73.83;97543.41;5071707;28;20270;-36
2022/02/04 05:44:56;;;;;;;3.72;2.63;;;6.10;99.90;;;6.18;73.90;97545.50;5087720;28;20380;-36
2022/02/04 05:47:24;;;;;;;2.87;2.00;;;6.10;99.90;;;6.19;74.67;97543.69;5087803;28;20285;-36
2022/02/04 05:51:06;;;;;;;2.27;1.67;;;6.10;99.90;;;6.24;74.09;97541.47;5087995;28;20052;-36
2022/02/04 05:53:13;;;;;;;2.40;1.60;;;6.10;99.90;;;6.26;74.21;97539.53;5072181;28;20526;-36
2022/02/04 05:55:58;;;;;;;1.97;1.30;;;6.20;99.90;;;6.27;73.70;97549.13;5088074;28;20060;-36
2022/02/04 06:09:01;;;;;;;2.33;1.70;;;6.40;99.90;;;6.50;73.90;97570.88;5088921;28;20044;-36
2022/02/04 06:11:41;;;;;;;3.33;1.70;;;6.40;99.90;;;6.55;73.58;97563.34;5086314;28;20052;-37
2022/02/04 06:22:29;;;;;;;2.83;2.00;;;6.50;99.90;;;6.71;73.28;97573.41;5087795;28;20040;-36
2022/02/04 06:25:07;;;;;;;2.60;1.80;;;6.60;99.90;;;6.72;72.79;97561.84;5086697;28;20044;-36
2022/02/04 06:27:37;;;;;;;2.10;1.40;;;6.60;99.90;;;6.72;72.76;97559.19;5087772;28;20048;-37
2022/02/04 06:30:06;;;;;;;1.97;1.47;;;6.60;99.90;;;6.72;73.12;97558.38;5087294;28;20052;-36
2022/02/04 06:32:34;;;;;;;2.13;1.60;;;6.60;99.90;;;6.72;72.81;97566.31;5086901;28;20070;-36
2022/02/04 06:35:08;;;;;;;2.53;1.70;;;6.60;99.90;;;6.73;72.59;97560.03;5085207;28;20044;-36
2022/02/04 06:37:36;;;;;;;2.20;1.50;;;6.60;99.90;;;6.73;72.95;97565.31;5086432;28;20632;-36
2022/02/04 06:40:05;;;;;;;2.63;1.40;;;6.60;99.90;;;6.73;72.90;97558.25;5085746;28;20059;-36
2022/02/04 06:42:33;;;;;;;1.70;1.27;;;6.60;99.90;;;6.71;72.46;97562.84;5086819;28;20052;-36
2022/02/04 06:45:03;;;;;;;2.73;1.60;;;6.60;99.90;;;6.73;72.73;97565.31;5087159;28;20044;-36
2022/02/04 06:47:31;;;;;;;1.73;1.30;;;6.60;99.90;;;6.73;72.47;97574.09;5086584;28;20384;-36
2022/02/04 06:49:59;;;;;;;2.37;1.77;;;6.60;99.90;;;6.71;72.11;97568.13;5086199;28;20052;-36
2022/02/04 06:52:27;;;;;;;1.60;1.10;;;6.60;99.90;;;6.72;72.31;97569.78;5086805;28;20071;-42
2022/02/04 06:54:55;;;;;;;1.80;1.00;;;6.60;99.90;;;6.75;72.04;97572.16;5087959;28;20042;-42
2022/02/04 06:57:23;;;;;;;1.83;1.30;;;6.60;99.90;;;6.76;72.25;97568.53;5087946;28;20055;-41
2022/02/04 06:59:53;;;;;;;1.80;1.53;;;6.60;99.90;;;6.75;72.34;97572.16;5086672;28;20381;-41
2022/02/04 07:02:23;;;;;;;2.10;1.47;;;6.60;99.90;;;6.75;71.95;97577.44;5086714;28;20354;-41
2022/02/04 07:04:50;;;;;;;1.23;1.10;;;6.60;99.90;;;6.76;71.87;97575.63;5085819;28;20044;-41
2022/02/04 07:07:19;;;;;;;1.73;0.93;;;6.60;99.90;;;6.76;72.23;97576.47;5085537;28;20265;-41
2022/02/04 07:09:59;;;;;;;2.80;2.07;;;6.60;99.90;;;6.75;71.75;97560.75;5085330;28;20051;-41
2022/02/04 07:12:38;;;;;;;4.23;2.53;;;6.50;99.90;;;6.73;71.99;97568.81;5066298;28;20049;-40
2022/02/04 07:15:29;;;;;;;4.83;1.90;;;6.50;99.90;;;6.70;72.04;97569.91;5066637;28;20048;-41
2022/02/04 07:18:02;;;;;;;5.30;2.50;;;6.40;99.90;;;6.69;71.61;97575.38;5066283;28;20051;-41
2022/02/04 07:20:29;;;;;;;2.83;2.00;;;6.40;99.90;;;6.67;71.81;97579.97;5066665;28;20056;-40
2022/02/04 07:22:57;;;;;;;3.17;1.70;;;6.40;99.90;;;6.68;71.73;97579.78;5065624;28;20060;-41
2022/02/04 07:25:25;;;;;;;1.00;0.90;;;6.40;99.90;;;6.70;72.15;97579.66;5064858;28;20068;-40
2022/02/04 07:27:53;;;;;;;3.37;2.07;;;6.50;99.90;;;6.70;72.05;97580.50;5065346;28;20064;-41
2022/02/04 07:30:44;;;;;;;3.40;1.70;;;6.50;99.90;;;6.68;71.76;97585.09;5065001;28;20057;-41
2022/02/04 07:33:19;;;;;;;1.60;1.40;;;6.40;99.90;;;6.69;72.07;97588.59;5065465;28;20063;-41
2022/02/04 07:40:52;;;;;;;2.97;1.80;;;6.50;99.90;;;6.73;71.88;97586.47;5065964;28;20363;-41
2022/02/04 07:41:39;;;;;;;3.80;1.67;;;6.50;99.90;;;6.73;71.85;97578.53;5064537;28;20059;-42
2022/02/04 07:44:08;;;;;;;2.53;1.77;;;6.40;99.90;;;6.71;71.97;97576.06;5065747;28;20048;-41
2022/02/04 07:46:38;;;;;;;3.00;1.83;;;6.40;99.90;;;6.67;71.87;97577.31;5065600;28;20251;-41
2022/02/04 07:49:06;;;;;;;2.63;1.80;;;6.30;99.90;;;6.65;72.08;97579.22;5063365;28;20051;-40
2022/02/04 07:51:35;;;;;;;5.07;1.90;;;6.30;99.90;;;6.63;71.72;97574.09;5064607;28;20075;-41
2022/02/04 07:54:03;;;;;;;2.87;1.70;;;6.30;99.90;;;6.63;71.70;97578.53;5065842;28;20392;-41
2022/02/04 07:56:32;;;;;;;2.87;1.87;;;6.40;99.90;;;6.65;71.49;97572.16;5065265;28;20056;-41
2022/02/04 07:59:07;;;;;;;2.90;2.00;;;6.40;99.90;;;6.67;71.73;97569.38;5065814;28;20266;-41
2022/02/04 08:01:35;;;;;;;3.53;1.90;;;6.40;99.90;;;6.68;71.79;97573.69;5065404;28;20047;-41
2022/02/04 08:06:42;;;;;;;4.20;2.33;;;6.50;99.90;;;6.67;71.50;97572.84;5084967;28;20052;-41
2022/02/04 08:25:36;;;;;;;6.97;3.20;;;6.50;99.90;;;6.77;72.03;97564.91;5085336;28;20533;-40
2022/02/04 08:47:10;;;;;;;7.97;5.17;;;6.90;99.90;;;7.07;71.79;97582.44;5102100;28;20322;-40
2022/02/04 08:49:45;;;;;;;5.27;3.17;;;6.90;99.90;;;7.08;71.58;97573.53;5100708;28;20048;-41
2022/02/04 08:54:56;;;;;;;4.67;2.80;;;7.00;99.90;;;7.17;72.03;97584.25;5098559;28;20048;-41
2022/02/04 09:02:52;;;;;;;4.17;2.70;;;7.10;99.90;;;7.23;71.59;97586.31;5101752;28;19916;-41
2022/02/04 09:05:17;;;;;;;4.50;2.57;;;7.10;99.90;;;7.22;71.43;97574.09;5098528;28;20058;-41
2022/02/04 09:10:15;;;;;;;4.40;2.70;;;7.00;99.90;;;7.28;71.40;97576.16;5099289;28;20044;-41
2022/02/04 09:18:33;;;;;;;3.83;2.67;;;7.20;99.90;;;7.37;71.89;97563.88;5098823;28;20364;-41
2022/02/04 09:21:14;;;;;;;5.93;2.80;;;7.20;99.90;;;7.39;71.51;97570.69;5098386;28;20040;-41
2022/02/04 09:23:44;;;;;;;12.10;8.10;;;7.20;99.90;;;7.43;71.59;97565.97;5100433;28;20046;-41
2022/02/04 09:26:11;;;;;;;10.93;6.90;;;7.30;99.90;;;7.46;71.53;97566.50;5101120;28;20039;-41
2022/02/04 09:28:39;;;;;;;5.30;4.07;;;7.40;99.90;;;7.50;71.72;97561.72;5115015;28;20062;-41
2022/02/04 09:31:07;;;;;;;6.17;3.83;;;7.40;99.90;;;7.48;71.21;97567.19;5121407;28;20057;-41
2022/02/04 09:33:35;;;;;;;4.10;2.90;;;7.30;99.90;;;7.46;71.66;97555.91;5120805;28;20051;-41
2022/02/04 09:36:03;;;;;;;4.70;2.50;;;7.30;99.90;;;7.48;71.48;97553.97;5121727;28;20039;-41
2022/02/04 09:38:31;;;;;;;5.70;2.60;;;7.40;99.90;;;7.48;71.51;97553.97;5120863;28;20036;-42
2022/02/04 09:40:59;;;;;;;2.77;2.17;;;7.40;99.90;;;7.41;71.62;97552.03;5121542;28;20035;-41
2022/02/04 09:43:28;;;;;;;3.27;2.20;;;7.20;99.90;;;7.41;71.55;97550.19;5120146;28;20039;-41
2022/02/04 09:45:56;;;;;;;3.67;2.53;;;7.20;99.90;;;7.42;71.93;97553.69;5118850;28;20043;-41
2022/02/04 09:48:24;;;;;;;5.20;2.73;;;7.20;99.90;;;7.43;71.87;97547.41;5107055;28;20389;-41
2022/02/04 09:50:54;;;;;;;3.40;2.33;;;7.20;99.90;;;7.43;71.76;97550.88;5112174;28;20047;-41
2022/02/04 10:12:59;;;;;;;4.33;2.17;;;6.90;99.90;;;7.26;72.37;97552.47;5088632;28;20058;-41
2022/02/04 10:18:15;;;;;;;2.55;1.73;;;7.10;99.90;;;7.29;72.04;97560.13;5087229;28;20044;-41
2022/02/04 10:20:43;;;;;;;2.30;1.67;;;7.10;99.90;;;7.34;72.11;97556.22;5088552;28;20054;-41
2022/02/04 10:23:11;;;;;;;3.30;1.60;;;7.10;99.90;;;7.38;72.20;97557.59;5107739;28;20360;-41
2022/02/04 10:25:42;;;;;;;2.17;1.27;;;7.20;99.90;;;7.44;72.22;97551.72;5107241;28;20057;-41
2022/02/04 10:28:28;;;;;;;1.20;1.00;;;7.30;99.90;;;7.47;72.27;97546.16;5096293;28;20251;-42
2022/02/04 10:31:06;;;;;;;1.97;1.37;;;7.30;99.90;;;7.53;71.83;97544.75;5086980;28;20060;-41
2022/02/04 10:33:47;;;;;;;1.27;1.00;;;7.40;99.90;;;7.59;71.83;97539.69;5088312;28;20246;-41
2022/02/04 10:39:50;;;;;;;1.10;0.90;;;7.50;99.90;;;7.68;71.67;97548.59;5069512;28;20308;-41
2022/02/04 10:56:21;;;;;;;1.10;0.73;;;7.70;99.90;;;7.85;71.52;97528.41;5086989;28;20704;-41
2022/02/04 11:04:22;;;;;;;2.27;1.20;;;7.80;99.90;;;7.95;70.79;97517.75;5081558;28;20250;-41
2022/02/04 11:09:51;;;;;;;3.03;1.50;;;7.80;99.90;;;7.96;70.54;97514.13;5085816;28;20070;-42
2022/02/04 11:32:36;;;;;;;1.03;1.00;;;7.80;99.90;;;7.86;67.10;97480.56;5086473;28;20624;-41
2022/02/04 11:54:39;;;;;;;1.53;0.70;;;8.10;99.90;;;8.08;67.10;97459.91;5065849;28;20052;-42
2022/02/04 11:57:07;;;;;;;0.80;0.60;;;8.10;99.90;;;8.09;66.97;97456.28;5066189;28;20044;-41
2022/02/04 11:59:46;;;;;;;0.40;0.40;;;8.20;99.90;;;8.11;65.08;97456.16;5064957;28;20056;-42
2022/02/04 12:02:33;;;;;;;0.77;0.77;;;8.20;99.90;;;8.10;65.88;97452.66;5066077;28;20044;-41
2022/02/04 12:05:15;;;;;;;1.27;0.80;;;8.20;99.90;;;8.15;65.62;97441.59;5091243;28;20065;-42
2022/02/04 12:08:18;;;;;;;1.00;0.57;;;8.20;99.90;;;8.17;65.90;97429.03;5085433;28;20362;-42
2022/02/04 12:10:54;;;;;;;1.13;0.70;;;8.20;99.90;;;8.23;66.01;97426.59;5086335;28;20066;-42
2022/02/04 12:13:24;;;;;;;1.20;0.90;;;8.30;99.90;;;8.27;66.06;97424.47;5090185;28;20043;-42
2022/02/04 12:16:10;;;;;;;0.70;0.60;;;8.30;99.90;;;8.18;65.33;97412.97;5089924;28;20059;-42
2022/02/04 12:18:41;;;;;;;1.00;0.87;;;8.20;97.20;;;8.27;65.85;97406.72;5090548;28;20057;-41
2022/02/04 12:21:12;;;;;;;1.03;0.73;;;8.30;98.80;;;8.31;65.38;97417.06;5090310;28;20067;-41
2022/02/04 12:23:44;;;;;;;0.60;0.50;;;8.30;96.00;;;8.29;64.55;97410.06;5090070;28;20051;-42
2022/02/04 12:26:36;;;;;;;1.67;0.83;;;8.30;91.70;;;8.28;62.55;97405.75;5089219;28;20048;-41
2022/02/04 12:29:06;;;;;;;1.60;0.70;;;8.40;88.10;;;8.29;64.36;97404.75;5089307;28;20040;-41
2022/02/04 12:31:39;;;;;;;0.83;0.60;;;8.40;92.00;;;8.26;63.15;97398.94;5089279;28;20055;-41
2022/02/04 12:34:18;;;;;;;0.60;0.60;;;8.30;89.10;;;8.29;63.40;97395.97;5089834;28;20044;-41
2022/02/04 12:36:49;;;;;;;0.40;0.40;;;8.30;86.80;;;8.27;63.60;97392.66;5090197;28;20040;-41
2022/02/04 12:39:30;;;;;;;0.70;0.70;;;8.30;89.10;;;8.27;63.57;97390.00;5089120;28;20062;-42
2022/02/04 12:42:06;;;;;;;0.63;0.63;;;8.30;86.90;;;8.24;63.35;97380.53;5088803;28;20051;-42
2022/02/04 12:44:37;;;;;;;0.73;0.57;;;8.40;87.40;;;8.31;63.70;97387.88;5071345;28;20040;-41
2022/02/04 12:47:31;;;;;;;2.50;1.10;;;8.40;89.50;;;8.35;64.37;97384.75;5087696;28;20055;-42
2022/02/04 12:50:02;;;;;;;1.67;1.03;;;8.40;90.10;;;8.40;64.38;97387.78;5101171;28;20052;-41
2022/02/04 12:52:42;;;;;;;1.73;1.00;;;8.40;91.60;;;8.37;64.19;97377.47;5101096;28;20048;-42
2022/02/04 12:55:34;;;;;;;2.67;1.57;;;8.40;91.30;;;8.37;64.41;97368.69;5102201;28;20373;-42
2022/02/04 13:11:15;;;;;;;2.67;1.70;;;8.30;92.90;;;8.28;64.18;97360.66;5087749;28;20056;-41
2022/02/04 13:13:55;;;;;;;2.13;1.40;;;8.30;92.60;;;8.26;64.19;97367.13;5090116;28;20044;-41
2022/02/04 13:16:29;;;;;;;2.37;1.33;;;8.30;90.80;;;8.25;64.75;97360.16;5089150;28;20055;-41
2022/02/04 13:19:04;;;;;;;1.67;1.27;;;8.20;91.30;;;8.26;64.38;97352.03;5090040;28;20044;-41
2022/02/04 13:21:33;;;;;;;2.20;1.60;;;8.30;91.40;;;8.32;64.63;97347.94;5088378;28;20354;-41
2022/02/04 13:24:07;;;;;;;1.73;1.23;;;8.30;92.20;;;8.35;64.68;97338.84;5071363;28;20052;-42
2022/02/04 13:26:35;;;;;;;1.75;1.40;;;8.30;92.00;;;8.38;64.61;97342.00;5088400;28;20372;-42
2022/02/04 13:29:05;;;;;;;2.50;1.60;;;8.30;92.20;;;8.40;64.74;97337.38;5088451;28;20247;-41
2022/02/04 13:31:40;;;;;;;2.40;1.73;;;8.30;91.40;;;8.43;64.71;97331.81;5089074;28;20048;-42
2022/02/04 13:34:10;;;;;;;2.33;1.50;;;8.40;92.60;;;8.44;64.36;97335.28;5088967;28;20043;-42
2022/02/04 13:36:52;;;;;;;1.70;1.20;;;8.40;91.10;;;8.46;63.87;97333.31;5086964;28;20054;-41
2022/02/04 13:44:52;;;;;;;1.70;1.40;;;8.30;86.80;;;8.37;63.58;97331.56;5101187;28;20070;-41
2022/02/04 13:50:26;;;;;;;3.05;1.17;;;8.30;87.30;;;8.21;62.33;97333.09;5098560;28;20044;-42
2022/02/04 14:03:48;;;;;;;1.93;1.10;;;8.00;80.40;;;7.99;61.31;97321.16;5099775;28;20075;-41
2022/02/04 14:06:21;;;;;;;1.47;1.00;;;7.90;82.20;;;8.03;61.91;97322.50;5093782;28;20052;-41
2022/02/04 14:08:57;;;;;;;2.03;1.60;;;8.00;82.70;;;8.05;61.96;97325.84;5091316;28;20052;-41
2022/02/04 14:11:35;;;;;;;5.90;2.40;;;8.00;82.70;;;8.09;62.17;97310.47;5089599;28;20063;-41
2022/02/04 14:14:10;;;;;;;2.97;2.13;;;8.00;83.00;;;8.15;61.72;97315.16;5083544;28;20247;-41
2022/02/04 14:16:41;;;;;;;1.80;1.00;;;8.10;82.70;;;8.07;61.22;97310.63;5088789;28;20044;-41
2022/02/04 14:19:10;;;;;;;1.80;1.23;;;8.00;79.10;;;8.09;61.61;97298.03;5084953;28;20040;-41
2022/02/04 14:21:38;;;;;;;1.60;1.37;;;8.00;82.20;;;8.11;61.70;97311.16;5087327;28;20052;-41
2022/02/04 14:24:11;;;;;;;2.70;1.77;;;8.10;81.80;;;8.14;61.80;97312.66;5088029;28;20062;-41
2022/02/04 14:26:44;;;;;;;1.67;1.20;;;8.10;82.10;;;8.17;61.67;97321.13;5088122;28;20042;-41
2022/02/04 14:31:48;;;;;;;1.73;1.20;;;8.20;80.80;;;8.26;61.74;97298.16;5086865;28;20372;-41
2022/02/04 15:01:54;;;;;;;4.53;1.80;;;7.90;76.50;;;7.99;59.98;97260.19;5084018;28;20455;-41
2022/02/04 15:04:48;;;;;;;1.83;1.27;;;8.00;76.20;;;7.95;58.66;97252.69;5092234;28;20376;-41
2022/02/04 15:07:11;;;;;;;1.40;1.20;;;8.00;74.20;;;7.97;59.05;97253.34;5096162;28;20265;-41
2022/02/04 15:09:48;;;;;;;1.10;0.80;;;8.00;75.50;;;8.01;59.76;97246.78;5097563;28;20040;-41
2022/02/04 15:12:16;;;;;;;2.03;0.73;;;8.00;75.50;;;7.97;59.58;97256.00;5095060;28;20043;-41
2022/02/04 15:14:44;;;;;;;1.50;1.00;;;8.00;74.30;;;7.99;59.98;97240.81;5096643;28;20056;-41
2022/02/04 15:17:12;;;;;;;1.13;0.80;;;8.00;75.30;;;7.98;59.66;97245.25;5093802;28;20062;-41
2022/02/04 15:19:42;;;;;;;1.17;0.70;;;8.00;75.60;;;7.98;59.79;97239.13;5096614;28;20353;-41
2022/02/04 15:22:11;;;;;;;1.27;0.83;;;8.00;75.30;;;8.00;59.78;97247.75;5095180;28;20040;-41
2022/02/04 15:24:39;;;;;;;3.43;1.10;;;8.00;75.40;;;7.97;60.11;97248.91;5098779;28;20062;-41
2022/02/04 15:27:08;;;;;;;1.23;1.13;;;8.00;75.30;;;7.98;59.73;97245.25;5098673;28;20046;-41
2022/02/04 15:29:42;;;;;;;1.83;0.80;;;8.00;75.10;;;8.01;59.76;97246.78;5095548;28;20056;-41
2022/02/04 15:32:09;;;;;;;1.25;1.15;;;8.00;75.80;;;7.99;59.65;97246.09;5098512;28;20040;-41
2022/02/04 15:34:37;;;;;;;4.40;2.20;;;8.00;74.80;;;7.97;59.92;97246.25;5092427;28;20052;-41
2022/02/04 15:37:05;;;;;;;1.33;1.00;;;7.90;75.70;;;7.92;60.07;97242.41;5095727;28;20058;-41
2022/02/04 15:39:34;;;;;;;2.83;1.40;;;7.90;74.90;;;7.96;60.27;97247.22;5093905;28;20055;-41
2022/02/04 15:42:09;;;;;;;1.50;0.97;;;7.80;76.30;;;7.91;60.02;97246.03;5093822;28;20262;-41
2022/02/04 15:44:42;;;;;;;1.83;0.70;;;7.90;76.00;;;7.89;60.05;97241.72;5095330;28;20058;-41
2022/02/04 15:47:24;;;;;;;0.77;0.77;;;7.90;76.20;;;7.88;60.36;97240.03;5099198;28;20074;-41
2022/02/04 16:05:52;;;;;;;1.87;0.80;;;7.70;78.10;;;7.91;60.75;97206.28;5042623;28;20056;-41
2022/02/04 16:08:21;;;;;;;4.37;1.63;;;7.70;78.40;;;7.89;60.99;97196.66;5096386;28;20055;-41
2022/02/04 16:25:01;;;;;;;2.33;1.40;;;7.80;79.20;;;7.98;61.03;97171.03;5090352;28;20044;-41
2022/02/04 16:30:07;;;;;;;0.93;0.80;;;7.90;79.20;;;8.00;60.99;97173.53;5089454;28;20380;-41
2022/02/04 16:32:35;;;;;;;2.03;1.27;;;7.80;79.10;;;8.00;61.12;97181.47;5089094;28;20354;-41
2022/02/04 16:35:05;;;;;;;1.80;1.17;;;7.80;79.10;;;7.99;61.14;97177.19;5083055;28;20372;-41
2022/02/04 16:37:35;;;;;;;1.20;0.90;;;7.80;79.30;;;8.00;61.32;97181.47;5088350;28;20254;-41
2022/02/04 16:40:15;;;;;;;2.53;1.13;;;7.80;79.50;;;8.00;61.20;97187.59;5090154;28;20043;-41
2022/02/04 16:42:44;;;;;;;2.67;1.30;;;7.90;79.10;;;7.99;61.20;97199.22;5090783;28;20046;-41
2022/02/04 16:45:13;;;;;;;4.37;2.00;;;7.80;79.20;;;8.00;61.10;97198.22;5089339;28;20051;-41
2022/02/04 16:47:41;;;;;;;2.67;2.10;;;7.90;79.40;;;7.96;60.94;97206.66;5090320;28;20052;-41
2022/02/04 16:50:10;;;;;;;2.50;1.60;;;7.90;78.60;;;7.92;60.91;97195.50;5089392;28;20051;-41
2022/02/04 16:52:38;;;;;;;2.60;1.50;;;7.80;77.60;;;7.95;61.12;97202.31;5069617;28;20339;-41
2022/02/04 16:55:06;;;;;;;1.10;0.80;;;7.80;78.60;;;7.94;61.07;97204.16;5088781;28;20055;-41
2022/02/04 16:57:34;;;;;;;0.97;0.60;;;7.90;78.70;;;7.91;60.95;97204.47;5088998;28;20469;-41
2022/02/04 17:00:19;;;;;;;0.53;0.50;;;7.80;78.20;;;7.90;60.96;97202.78;5085651;28;20059;-41
2022/02/04 17:02:49;;;;;;;1.33;0.98;;;7.90;77.70;;;7.86;60.97;97214.69;5085274;28;20050;-41
2022/02/04 17:05:22;;;;;;;1.07;0.60;;;7.80;77.70;;;7.84;60.66;97204.25;5087649;28;20364;-41
2022/02/04 17:07:55;;;;;;;0.90;0.90;;;7.90;77.40;;;7.80;60.60;97191.47;5088193;28;20250;-41
2022/02/04 17:10:29;;;;;;;2.38;0.88;;;7.80;76.90;;;7.77;60.97;97207.66;5088690;28;20060;-43
2022/02/04 17:13:04;;;;;;;1.27;0.70;;;7.70;77.60;;;7.69;60.72;97198.66;5088741;28;20077;-41
2022/02/04 17:15:36;;;;;;;1.47;0.80;;;7.70;77.60;;;7.68;60.62;97209.44;5088135;28;20342;-41
2022/02/04 17:18:07;;;;;;;0.70;0.53;;;7.70;78.10;;;7.66;61.04;97206.94;5088597;28;20060;-41
2022/02/04 17:20:35;;;;;;;0.77;0.60;;;7.70;78.10;;;7.68;61.30;97220.84;5087331;28;20054;-41
2022/02/04 17:23:04;;;;;;;2.40;1.10;;;7.70;77.80;;;7.66;60.91;97214.06;5088828;28;20058;-41
2022/02/04 17:25:35;;;;;;;0.90;0.80;;;7.70;78.20;;;7.64;61.36;97214.19;5071166;28;20474;-41
2022/02/04 17:28:04;;;;;;;0.77;0.60;;;7.70;78.40;;;7.64;61.48;97210.72;5088188;28;20062;-41
2022/02/04 17:30:32;;;;;;;1.87;0.80;;;7.70;78.60;;;7.65;61.42;97230.91;5087594;28;20064;-41
2022/02/04 17:33:01;;;;;;;1.23;1.00;;;7.70;78.60;;;7.61;61.24;97233.03;5088017;28;20040;-41
2022/02/04 17:35:28;;;;;;;1.37;0.90;;;7.70;78.50;;;7.64;61.29;97230.09;5088208;28;20052;-42
2022/02/04 17:38:01;;;;;;;4.33;2.23;;;7.70;78.50;;;7.65;61.47;97238.88;5088430;28;20265;-41
2022/02/04 17:40:29;;;;;;;1.47;0.93;;;7.70;78.40;;;7.63;61.42;97241.66;5086941;28;20040;-41
2022/02/04 17:42:59;;;;;;;1.87;1.43;;;7.70;78.30;;;7.67;61.55;97245.66;5089450;28;20039;-41
2022/02/04 17:45:28;;;;;;;2.20;1.07;;;7.70;78.70;;;7.71;61.59;97250.69;5087563;28;20043;-41
2022/02/04 17:48:04;;;;;;;2.10;1.10;;;7.70;78.10;;;7.69;61.26;97245.53;5087130;28;20063;-41